Time;durP1;ratioP1;P1;durP2;ratioP2;P2;SDS_P1;SDS_P2;PMS_P1;PMS_P2;Temp;Humidity;BMP_temperature;BMP_pressure;BME280_temperature;BME280_humidity;BME280_pressure;Samples;Min_cycle;Max_cycle;Signal;HPM_P1;HPM_P2
2023/09/01 00:01:51;;;;;;;11.17;6.37;;;;;;;;;;5030809;28;20416;-59
2023/09/01 00:04:18;;;;;;;10.00;6.20;;;;;;;;;;5030976;28;20130;-59
2023/09/01 00:06:44;;;;;;;12.93;7.40;;;;;;;;;;5030397;28;20563;-59
2023/09/01 00:09:10;;;;;;;14.33;7.83;;;;;;;;;;5029610;28;20046;-59
2023/09/01 00:11:35;;;;;;;13.60;6.33;;;;;;;;;;5030831;28;20517;-59
2023/09/01 00:14:03;;;;;;;13.80;6.67;;;;;;;;;;5030738;28;20041;-59
2023/09/01 00:16:29;;;;;;;10.07;6.53;;;;;;;;;;5030922;28;20512;-59
2023/09/01 00:18:55;;;;;;;13.97;7.17;;;;;;;;;;5029681;28;20049;-59
2023/09/01 00:21:21;;;;;;;13.40;6.80;;;;;;;;;;5030576;28;20582;-59
2023/09/01 00:23:47;;;;;;;11.73;6.40;;;;;;;;;;5030521;28;20085;-59
2023/09/01 00:26:13;;;;;;;12.43;6.53;;;;;;;;;;5030679;28;20042;-59
2023/09/01 00:28:39;;;;;;;16.90;7.10;;;;;;;;;;5029872;28;20042;-59
2023/09/01 00:31:05;;;;;;;10.70;6.67;;;;;;;;;;5029268;28;20049;-59
2023/09/01 00:33:31;;;;;;;10.47;6.73;;;;;;;;;;5030097;28;20107;-60
2023/09/01 00:35:57;;;;;;;15.97;7.00;;;;;;;;;;5030109;28;20045;-59
2023/09/01 00:38:29;;;;;;;16.30;7.97;;;;;;;;;;5030462;28;20485;-59
2023/09/01 00:40:55;;;;;;;12.73;6.60;;;;;;;;;;5028720;28;20054;-59
2023/09/01 00:43:21;;;;;;;10.60;6.03;;;;;;;;;;5030196;28;20045;-59
2023/09/01 00:45:47;;;;;;;9.63;5.77;;;;;;;;;;5029844;28;20500;-59
2023/09/01 00:48:13;;;;;;;11.00;5.73;;;;;;;;;;5029657;28;20076;-59
2023/09/01 00:50:40;;;;;;;10.47;6.73;;;;;;;;;;5028498;28;20056;-59
2023/09/01 00:53:06;;;;;;;8.73;5.70;;;;;;;;;;5028266;28;20068;-59
2023/09/01 00:55:33;;;;;;;12.20;6.37;;;;;;;;;;5029977;28;20061;-59
2023/09/01 00:58:00;;;;;;;12.60;6.90;;;;;;;;;;5029391;28;20042;-59
2023/09/01 01:00:26;;;;;;;10.97;6.67;;;;;;;;;;5027755;28;20522;-59
2023/09/01 01:02:52;;;;;;;12.80;7.10;;;;;;;;;;5030052;28;20053;-59
2023/09/01 01:05:23;;;;;;;14.73;6.47;;;;;;;;;;5029714;28;20050;-59
2023/09/01 01:07:49;;;;;;;11.77;7.20;;;;;;;;;;5028718;28;20060;-59
2023/09/01 01:10:35;;;;;;;15.33;7.47;;;;;;;;;;5022763;28;20050;-60
2023/09/01 01:13:06;;;;;;;12.00;7.10;;;;;;;;;;5009076;28;20080;-59
2023/09/01 01:15:33;;;;;;;10.73;6.83;;;;;;;;;;5009749;28;20149;-59
2023/09/01 01:18:00;;;;;;;13.90;7.47;;;;;;;;;;5009808;28;20057;-59
2023/09/01 01:20:31;;;;;;;11.53;7.30;;;;;;;;;;5020208;28;20037;-59
2023/09/01 01:22:58;;;;;;;15.83;7.67;;;;;;;;;;5029137;28;20064;-59
2023/09/01 01:25:24;;;;;;;11.43;7.20;;;;;;;;;;5029896;28;20056;-59
2023/09/01 01:27:50;;;;;;;21.03;11.53;;;;;;;;;;5028313;28;20124;-59
2023/09/01 01:30:16;;;;;;;18.83;11.00;;;;;;;;;;5029873;28;20643;-59
2023/09/01 01:32:43;;;;;;;15.17;9.87;;;;;;;;;;5027693;28;20045;-59
2023/09/01 01:35:38;;;;;;;17.27;10.40;;;;;;;;;;5028562;28;20049;-59
2023/09/01 01:38:13;;;;;;;18.17;9.03;;;;;;;;;;5008053;28;20519;-59
2023/09/01 01:40:40;;;;;;;19.40;10.97;;;;;;;;;;5009155;28;20125;-59
2023/09/01 01:43:08;;;;;;;17.90;10.57;;;;;;;;;;5009683;28;20056;-59
2023/09/01 01:45:35;;;;;;;15.93;8.43;;;;;;;;;;5008870;28;20046;-59
2023/09/01 01:48:01;;;;;;;10.90;6.60;;;;;;;;;;5024634;28;20044;-59
2023/09/01 01:50:27;;;;;;;17.30;8.93;;;;;;;;;;5029127;28;20049;-59
2023/09/01 01:52:53;;;;;;;18.40;9.00;;;;;;;;;;5029256;28;20045;-59
2023/09/01 01:55:19;;;;;;;17.00;8.03;;;;;;;;;;5029102;28;20041;-59
2023/09/01 01:57:45;;;;;;;16.13;10.30;;;;;;;;;;5027320;28;20562;-59
2023/09/01 02:00:11;;;;;;;18.00;10.43;;;;;;;;;;5027761;28;20129;-59
2023/09/01 02:02:40;;;;;;;14.07;9.67;;;;;;;;;;5028771;28;20104;-59
2023/09/01 02:05:06;;;;;;;16.67;11.17;;;;;;;;;;5028795;28;20045;-59
2023/09/01 02:07:33;;;;;;;22.60;11.87;;;;;;;;;;5028183;28;20041;-59
2023/09/01 02:09:59;;;;;;;24.33;12.33;;;;;;;;;;5027252;28;20132;-59
2023/09/01 02:12:25;;;;;;;23.43;12.10;;;;;;;;;;5027849;28;20136;-59
2023/09/01 02:14:51;;;;;;;18.50;10.77;;;;;;;;;;5027491;28;20132;-60
2023/09/01 02:17:17;;;;;;;17.97;10.27;;;;;;;;;;5027753;28;20049;-59
2023/09/01 02:19:43;;;;;;;15.40;10.13;;;;;;;;;;5027725;28;20048;-59
2023/09/01 02:22:08;;;;;;;14.40;9.50;;;;;;;;;;5028854;28;20049;-59
2023/09/01 02:24:34;;;;;;;17.37;9.57;;;;;;;;;;5028736;28;20525;-59
2023/09/01 02:27:00;;;;;;;16.20;10.47;;;;;;;;;;5027478;28;20115;-59
2023/09/01 02:29:26;;;;;;;18.00;11.20;;;;;;;;;;5027671;28;20049;-59
2023/09/01 02:31:53;;;;;;;14.37;10.17;;;;;;;;;;5028898;28;20400;-59
2023/09/01 02:34:19;;;;;;;16.23;11.00;;;;;;;;;;5028530;28;20049;-59
2023/09/01 02:36:46;;;;;;;20.80;11.43;;;;;;;;;;5027975;28;20400;-59
2023/09/01 02:39:12;;;;;;;19.57;11.23;;;;;;;;;;5027873;28;20049;-59
2023/09/01 02:41:38;;;;;;;20.97;11.93;;;;;;;;;;5011508;28;20050;-59
2023/09/01 02:44:04;;;;;;;16.13;9.60;;;;;;;;;;5018086;28;20113;-59
2023/09/01 02:46:30;;;;;;;18.10;10.43;;;;;;;;;;5027353;28;20045;-59
2023/09/01 02:48:56;;;;;;;17.13;10.20;;;;;;;;;;5024714;28;20049;-59
2023/09/01 02:51:22;;;;;;;16.67;10.63;;;;;;;;;;5024237;28;20104;-59
2023/09/01 02:53:48;;;;;;;13.73;10.57;;;;;;;;;;5028298;28;21023;-59
2023/09/01 02:56:14;;;;;;;25.20;12.47;;;;;;;;;;5026677;28;20052;-59
2023/09/01 02:58:41;;;;;;;23.90;11.40;;;;;;;;;;5025213;28;20076;-59
2023/09/01 03:01:07;;;;;;;15.53;9.97;;;;;;;;;;5028348;28;20104;-59
2023/09/01 03:03:34;;;;;;;16.77;9.53;;;;;;;;;;5027602;28;20041;-59
2023/09/01 03:06:00;;;;;;;21.53;11.60;;;;;;;;;;5027956;28;20492;-59
2023/09/01 03:08:26;;;;;;;23.33;11.93;;;;;;;;;;5027115;28;20046;-59
2023/09/01 03:10:53;;;;;;;25.20;11.97;;;;;;;;;;5027835;28;20049;-59
2023/09/01 03:13:20;;;;;;;21.30;12.23;;;;;;;;;;5027267;28;20103;-60
2023/09/01 03:15:46;;;;;;;20.80;12.10;;;;;;;;;;5027477;28;20054;-59
2023/09/01 03:18:12;;;;;;;28.43;13.70;;;;;;;;;;5027273;28;20045;-59
2023/09/01 03:20:41;;;;;;;22.83;12.97;;;;;;;;;;5027755;28;20512;-59
2023/09/01 03:23:07;;;;;;;20.40;13.20;;;;;;;;;;5027371;28;20056;-59
2023/09/01 03:25:33;;;;;;;20.13;12.57;;;;;;;;;;5027639;28;20050;-59
2023/09/01 03:27:59;;;;;;;20.43;11.30;;;;;;;;;;5026784;28;20041;-59
2023/09/01 03:30:25;;;;;;;17.60;10.90;;;;;;;;;;5027727;28;20140;-59
2023/09/01 03:32:52;;;;;;;25.63;14.37;;;;;;;;;;5031020;28;20561;-59
2023/09/01 03:35:18;;;;;;;16.83;9.67;;;;;;;;;;5031102;28;20477;-59
2023/09/01 03:37:44;;;;;;;18.43;11.17;;;;;;;;;;5029796;28;20037;-59
2023/09/01 03:40:10;;;;;;;20.07;12.43;;;;;;;;;;5031244;28;20127;-59
2023/09/01 03:42:37;;;;;;;20.03;12.03;;;;;;;;;;5031318;28;20073;-59
2023/09/01 03:45:04;;;;;;;17.10;10.50;;;;;;;;;;5031181;28;20037;-59
2023/09/01 03:47:29;;;;;;;19.30;11.53;;;;;;;;;;5029958;28;20041;-59
2023/09/01 03:49:55;;;;;;;19.40;12.93;;;;;;;;;;5030767;28;22210;-60
2023/09/01 03:52:21;;;;;;;20.93;13.03;;;;;;;;;;5030969;28;20060;-59
2023/09/01 03:54:47;;;;;;;24.73;14.17;;;;;;;;;;5031033;28;20038;-59
2023/09/01 03:57:15;;;;;;;20.73;13.90;;;;;;;;;;5030281;28;20048;-59
2023/09/01 03:59:42;;;;;;;21.73;11.13;;;;;;;;;;5030757;28;20107;-59
2023/09/01 04:02:08;;;;;;;9.97;7.53;;;;;;;;;;5030413;28;20141;-59
2023/09/01 04:04:34;;;;;;;15.37;10.17;;;;;;;;;;5031097;28;20140;-59
2023/09/01 04:07:00;;;;;;;13.67;8.27;;;;;;;;;;5029994;28;20063;-59
2023/09/01 04:09:26;;;;;;;13.70;9.53;;;;;;;;;;5029631;28;20050;-59
2023/09/01 04:11:54;;;;;;;14.73;9.60;;;;;;;;;;5030126;28;20029;-59
2023/09/01 04:14:20;;;;;;;13.87;9.13;;;;;;;;;;5030251;28;20104;-59
2023/09/01 04:16:46;;;;;;;14.00;9.03;;;;;;;;;;5029770;28;20038;-59
2023/09/01 04:19:12;;;;;;;9.50;7.70;;;;;;;;;;5030845;28;20053;-59
2023/09/01 04:21:38;;;;;;;17.00;9.30;;;;;;;;;;5029927;28;20051;-59
2023/09/01 04:24:04;;;;;;;13.07;8.93;;;;;;;;;;5030684;28;20049;-59
2023/09/01 04:26:31;;;;;;;11.17;8.27;;;;;;;;;;5029639;28;20057;-59
2023/09/01 04:28:57;;;;;;;12.83;7.50;;;;;;;;;;5029298;28;20053;-59
2023/09/01 04:31:28;;;;;;;13.13;9.47;;;;;;;;;;5013629;28;20129;-59
2023/09/01 04:33:54;;;;;;;18.93;11.77;;;;;;;;;;5010238;28;20046;-62
2023/09/01 04:36:20;;;;;;;16.60;10.97;;;;;;;;;;5011189;28;20041;-59
2023/09/01 04:38:46;;;;;;;17.00;10.67;;;;;;;;;;5030406;28;20080;-59
2023/09/01 04:41:12;;;;;;;21.37;12.80;;;;;;;;;;5030243;28;20614;-59
2023/09/01 04:43:38;;;;;;;23.70;14.57;;;;;;;;;;5029552;28;20486;-59
2023/09/01 04:46:04;;;;;;;25.60;14.03;;;;;;;;;;5029997;28;20490;-59
2023/09/01 04:48:30;;;;;;;31.53;15.80;;;;;;;;;;5028164;28;20042;-59
2023/09/01 04:50:57;;;;;;;21.67;15.53;;;;;;;;;;5028866;28;20054;-59
2023/09/01 04:53:23;;;;;;;23.50;13.33;;;;;;;;;;5029879;28;20160;-59
2023/09/01 04:55:49;;;;;;;20.50;13.50;;;;;;;;;;5029723;28;20045;-59
2023/09/01 04:58:16;;;;;;;18.07;12.27;;;;;;;;;;5029867;28;20045;-59
2023/09/01 05:00:42;;;;;;;19.40;12.73;;;;;;;;;;5028988;28;20047;-59
2023/09/01 05:03:08;;;;;;;32.13;16.93;;;;;;;;;;5029581;28;20136;-59
2023/09/01 05:05:34;;;;;;;29.27;18.13;;;;;;;;;;5029082;28;20045;-59
2023/09/01 05:08:00;;;;;;;40.10;22.27;;;;;;;;;;5027827;28;20385;-59
2023/09/01 05:10:26;;;;;;;47.30;24.27;;;;;;;;;;5027134;28;20099;-59
2023/09/01 05:12:52;;;;;;;38.10;20.13;;;;;;;;;;5029505;28;20042;-59
2023/09/01 05:15:18;;;;;;;29.67;18.90;;;;;;;;;;5029714;28;20067;-59
2023/09/01 05:17:45;;;;;;;38.53;21.60;;;;;;;;;;5029549;28;20579;-59
2023/09/01 05:20:11;;;;;;;47.87;24.80;;;;;;;;;;5028789;28;20510;-59
2023/09/01 05:22:37;;;;;;;56.33;30.27;;;;;;;;;;5028855;28;20090;-59
2023/09/01 05:25:03;;;;;;;70.33;34.43;;;;;;;;;;5028819;28;20041;-59
2023/09/01 05:27:29;;;;;;;46.80;27.63;;;;;;;;;;5028548;28;20052;-59
2023/09/01 05:29:55;;;;;;;53.40;28.97;;;;;;;;;;5028791;28;20037;-59
2023/09/01 05:32:23;;;;;;;62.13;30.00;;;;;;;;;;5026453;28;20132;-59
2023/09/01 05:34:49;;;;;;;44.77;22.20;;;;;;;;;;5028634;28;20423;-59
2023/09/01 05:37:15;;;;;;;39.67;24.07;;;;;;;;;;5028521;28;20468;-59
2023/09/01 05:39:41;;;;;;;51.53;28.03;;;;;;;;;;5028698;28;20113;-59
2023/09/01 05:42:08;;;;;;;52.50;28.83;;;;;;;;;;5028334;28;20582;-59
2023/09/01 05:44:35;;;;;;;40.67;24.20;;;;;;;;;;5028613;28;20053;-59
2023/09/01 05:47:02;;;;;;;60.70;32.40;;;;;;;;;;5028701;28;20057;-59
2023/09/01 05:49:31;;;;;;;41.90;21.43;;;;;;;;;;5027969;28;20056;-59
2023/09/01 05:51:57;;;;;;;52.50;26.90;;;;;;;;;;5027226;28;20045;-60
2023/09/01 05:54:23;;;;;;;61.77;33.63;;;;;;;;;;5027873;28;20454;-59
2023/09/01 05:56:49;;;;;;;76.73;40.17;;;;;;;;;;5028077;28;20530;-59
2023/09/01 05:59:15;;;;;;;75.93;39.80;;;;;;;;;;5028585;28;20050;-59
2023/09/01 06:01:41;;;;;;;60.03;34.53;;;;;;;;;;5026429;28;20236;-59
2023/09/01 06:04:08;;;;;;;73.37;39.57;;;;;;;;;;5028428;28;20132;-59
2023/09/01 06:06:35;;;;;;;65.20;37.60;;;;;;;;;;5028196;28;20119;-59
2023/09/01 06:09:01;;;;;;;64.97;37.97;;;;;;;;;;5028386;28;20046;-60
2023/09/01 06:11:28;;;;;;;64.27;37.10;;;;;;;;;;5027823;28;20041;-59
2023/09/01 06:13:54;;;;;;;66.87;36.63;;;;;;;;;;5027615;28;20488;-59
2023/09/01 06:16:20;;;;;;;64.73;37.83;;;;;;;;;;5026935;28;20048;-59
2023/09/01 06:18:46;;;;;;;58.73;34.40;;;;;;;;;;5026622;28;20037;-60
2023/09/01 06:21:16;;;;;;;54.00;32.87;;;;;;;;;;5028397;28;20052;-59
2023/09/01 06:23:44;;;;;;;55.57;33.40;;;;;;;;;;5028093;28;20419;-59
2023/09/01 06:26:13;;;;;;;47.37;30.60;;;;;;;;;;5026815;28;20045;-59
2023/09/01 06:28:42;;;;;;;50.70;29.07;;;;;;;;;;5027858;28;20048;-59
2023/09/01 06:31:09;;;;;;;44.63;29.43;;;;;;;;;;5028022;28;20041;-59
2023/09/01 06:33:35;;;;;;;46.07;30.20;;;;;;;;;;5027700;28;20414;-59
2023/09/01 06:36:02;;;;;;;46.20;29.20;;;;;;;;;;5025696;28;20107;-59
2023/09/01 06:38:28;;;;;;;47.30;31.40;;;;;;;;;;5027932;28;20554;-59
2023/09/01 06:40:54;;;;;;;43.47;28.63;;;;;;;;;;5027813;28;20104;-59
2023/09/01 06:43:20;;;;;;;42.00;26.73;;;;;;;;;;5027889;28;20045;-59
2023/09/01 06:45:46;;;;;;;41.00;28.53;;;;;;;;;;5026293;28;20060;-59
2023/09/01 06:48:11;;;;;;;40.10;28.23;;;;;;;;;;5027871;28;20048;-60
2023/09/01 06:50:38;;;;;;;43.37;25.73;;;;;;;;;;5027806;28;20052;-60
2023/09/01 06:53:05;;;;;;;36.80;26.63;;;;;;;;;;5026878;28;20045;-59
2023/09/01 06:55:31;;;;;;;40.47;25.47;;;;;;;;;;5027889;28;20048;-59
2023/09/01 06:57:57;;;;;;;31.03;23.70;;;;;;;;;;5027145;28;20049;-60
2023/09/01 07:00:23;;;;;;;31.47;23.33;;;;;;;;;;5027087;28;20050;-59
2023/09/01 07:02:49;;;;;;;34.50;23.73;;;;;;;;;;5026106;28;20096;-59
2023/09/01 07:05:18;;;;;;;34.20;22.47;;;;;;;;;;5027414;28;20481;-59
2023/09/01 07:07:44;;;;;;;30.73;21.40;;;;;;;;;;5031329;28;20044;-60
2023/09/01 07:10:10;;;;;;;29.07;21.43;;;;;;;;;;5031660;28;20046;-59
2023/09/01 07:12:36;;;;;;;27.73;21.30;;;;;;;;;;5019226;28;20054;-59
2023/09/01 07:15:04;;;;;;;27.00;19.80;;;;;;;;;;5018206;28;20103;-59
2023/09/01 07:17:30;;;;;;;27.13;18.33;;;;;;;;;;5030911;28;20049;-59
2023/09/01 07:19:56;;;;;;;24.30;18.90;;;;;;;;;;5031120;28;20049;-59
2023/09/01 07:22:22;;;;;;;24.53;16.83;;;;;;;;;;5030747;28;20107;-60
2023/09/01 07:24:48;;;;;;;23.53;16.70;;;;;;;;;;5031022;28;20041;-60
2023/09/01 07:27:14;;;;;;;24.57;17.03;;;;;;;;;;5031678;28;20049;-60
2023/09/01 07:29:40;;;;;;;20.57;15.63;;;;;;;;;;5030824;28;20049;-59
2023/09/01 07:32:06;;;;;;;22.23;16.83;;;;;;;;;;5028703;28;20099;-60
2023/09/01 07:34:32;;;;;;;19.20;15.63;;;;;;;;;;5031649;28;20052;-60
2023/09/01 07:36:58;;;;;;;25.40;16.17;;;;;;;;;;5027410;28;20169;-60
2023/09/01 07:39:24;;;;;;;20.33;15.10;;;;;;;;;;5034650;28;20924;-60
2023/09/01 07:41:50;;;;;;;20.80;16.00;;;;;;;;;;5030249;28;20037;-60
2023/09/01 07:44:17;;;;;;;21.00;14.63;;;;;;;;;;5030321;28;20132;-59
2023/09/01 07:46:43;;;;;;;20.27;14.17;;;;;;;;;;5029892;28;20046;-60
2023/09/01 07:49:10;;;;;;;17.00;12.70;;;;;;;;;;5029553;28;20103;-60
2023/09/01 07:51:37;;;;;;;20.33;13.00;;;;;;;;;;5029185;28;20045;-60
2023/09/01 07:54:04;;;;;;;19.40;13.20;;;;;;;;;;5030721;28;20054;-60
2023/09/01 07:56:29;;;;;;;19.77;14.17;;;;;;;;;;5030526;28;20057;-60
2023/09/01 07:58:55;;;;;;;21.93;13.33;;;;;;;;;;5030612;28;20051;-60
2023/09/01 08:01:21;;;;;;;18.70;13.83;;;;;;;;;;5030321;28;20041;-60
2023/09/01 08:03:47;;;;;;;15.67;12.17;;;;;;;;;;5030122;28;20130;-60
2023/09/01 08:06:13;;;;;;;16.37;12.40;;;;;;;;;;5030703;28;20431;-60
2023/09/01 08:08:39;;;;;;;15.60;11.93;;;;;;;;;;5030348;28;20092;-60
2023/09/01 08:11:05;;;;;;;19.93;11.70;;;;;;;;;;5061141;28;20080;-61
2023/09/01 08:13:31;;;;;;;18.43;12.17;;;;;;;;;;5030174;28;20038;-60
2023/09/01 08:15:57;;;;;;;15.27;11.97;;;;;;;;;;5030188;28;20053;-58
2023/09/01 08:18:23;;;;;;;21.37;11.13;;;;;;;;;;5029566;28;20491;-60
2023/09/01 08:20:49;;;;;;;21.40;12.27;;;;;;;;;;5030411;28;20049;-59
2023/09/01 08:23:15;;;;;;;16.57;11.27;;;;;;;;;;5030005;28;20633;-60
2023/09/01 08:25:41;;;;;;;14.37;11.27;;;;;;;;;;5029800;28;20069;-60
2023/09/01 08:28:07;;;;;;;17.40;11.23;;;;;;;;;;5029901;28;20103;-60
2023/09/01 08:30:33;;;;;;;14.47;10.57;;;;;;;;;;5030351;28;20049;-60
2023/09/01 08:33:04;;;;;;;15.57;11.37;;;;;;;;;;5029522;28;20092;-59
2023/09/01 08:35:30;;;;;;;14.27;10.83;;;;;;;;;;5030094;28;20132;-59
2023/09/01 08:37:56;;;;;;;14.00;11.33;;;;;;;;;;5029789;28;20460;-60
2023/09/01 08:40:22;;;;;;;12.53;10.17;;;;;;;;;;5029997;28;20087;-60
2023/09/01 08:42:48;;;;;;;17.40;11.60;;;;;;;;;;5029659;28;20463;-60
2023/09/01 08:45:15;;;;;;;14.90;10.10;;;;;;;;;;5029368;28;20184;-60
2023/09/01 08:47:45;;;;;;;17.57;9.93;;;;;;;;;;5029970;28;20045;-60
2023/09/01 08:50:12;;;;;;;17.00;10.10;;;;;;;;;;5029584;28;20041;-61
2023/09/01 08:52:39;;;;;;;15.20;9.73;;;;;;;;;;5029780;28;20073;-60
2023/09/01 08:55:05;;;;;;;16.20;10.13;;;;;;;;;;5028885;28;20049;-60
2023/09/01 08:57:32;;;;;;;13.33;9.27;;;;;;;;;;5029616;28;20037;-60
2023/09/01 08:59:57;;;;;;;12.93;8.43;;;;;;;;;;5029373;28;20393;-61
2023/09/01 09:02:24;;;;;;;16.60;9.13;;;;;;;;;;5029676;28;20045;-60
2023/09/01 09:04:50;;;;;;;16.73;9.03;;;;;;;;;;5028770;28;20569;-60
2023/09/01 09:07:17;;;;;;;12.87;8.17;;;;;;;;;;5029195;28;20503;-60
2023/09/01 09:09:59;;;;;;;14.10;7.90;;;;;;;;;;5029633;28;20081;-60
2023/09/01 09:12:35;;;;;;;15.60;8.80;;;;;;;;;;5029289;28;20482;-60
2023/09/01 09:15:02;;;;;;;15.10;7.90;;;;;;;;;;5029292;28;20052;-60
2023/09/01 09:17:48;;;;;;;11.50;7.40;;;;;;;;;;5028664;28;20499;-60
2023/09/01 09:20:15;;;;;;;10.77;6.60;;;;;;;;;;5029423;28;20054;-60
2023/09/01 09:22:50;;;;;;;11.57;8.33;;;;;;;;;;5029091;28;20460;-60
2023/09/01 09:25:27;;;;;;;13.40;7.20;;;;;;;;;;5029436;28;20483;-60
2023/09/01 09:27:53;;;;;;;13.30;7.60;;;;;;;;;;5029111;28;20480;-60
2023/09/01 09:30:19;;;;;;;12.27;7.23;;;;;;;;;;5028113;28;20136;-60
2023/09/01 09:32:48;;;;;;;15.20;6.93;;;;;;;;;;5028399;28;20053;-60
2023/09/01 09:35:16;;;;;;;17.23;6.53;;;;;;;;;;5028841;28;20046;-60
2023/09/01 09:37:42;;;;;;;11.90;6.70;;;;;;;;;;5028987;28;20053;-60
2023/09/01 09:40:14;;;;;;;11.93;6.27;;;;;;;;;;5028462;28;20148;-60
2023/09/01 09:42:41;;;;;;;16.83;6.10;;;;;;;;;;5028695;28;20053;-61
2023/09/01 09:45:21;;;;;;;12.00;5.30;;;;;;;;;;5028238;28;20292;-61
2023/09/01 09:47:49;;;;;;;14.90;6.23;;;;;;;;;;5028675;28;20558;-60
2023/09/01 09:50:16;;;;;;;11.47;6.07;;;;;;;;;;5028679;28;20057;-60
2023/09/01 09:52:43;;;;;;;10.30;5.33;;;;;;;;;;5028655;28;20041;-61
2023/09/01 09:55:10;;;;;;;10.17;6.53;;;;;;;;;;5028262;28;20049;-60
2023/09/01 09:57:38;;;;;;;17.33;6.00;;;;;;;;;;5027987;28;20049;-60
2023/09/01 10:00:10;;;;;;;13.63;6.37;;;;;;;;;;5028588;28;20092;-61
2023/09/01 10:03:08;;;;;;;12.77;6.20;;;;;;;;;;5028537;28;20539;-61
2023/09/01 10:05:35;;;;;;;11.87;5.83;;;;;;;;;;5015854;28;20065;-61
2023/09/01 10:08:04;;;;;;;12.70;5.57;;;;;;;;;;5028308;28;20522;-61
2023/09/01 10:10:33;;;;;;;13.67;5.80;;;;;;;;;;5028368;28;20085;-60
2023/09/01 10:12:59;;;;;;;13.17;5.83;;;;;;;;;;5028114;28;20053;-60
2023/09/01 10:15:25;;;;;;;12.40;6.30;;;;;;;;;;5027683;28;20049;-61
2023/09/01 10:17:52;;;;;;;11.73;5.80;;;;;;;;;;5028232;28;20408;-60
2023/09/01 10:20:18;;;;;;;11.47;6.43;;;;;;;;;;5028092;28;20038;-60
2023/09/01 10:22:44;;;;;;;14.97;6.30;;;;;;;;;;5028079;28;20064;-60
2023/09/01 10:25:15;;;;;;;12.47;5.27;;;;;;;;;;5027505;28;20049;-60
2023/09/01 10:28:00;;;;;;;12.43;5.63;;;;;;;;;;5028251;28;20515;-61
2023/09/01 10:30:27;;;;;;;11.63;5.80;;;;;;;;;;5028099;28;20124;-61
2023/09/01 10:33:04;;;;;;;13.73;5.90;;;;;;;;;;5027817;28;20041;-61
2023/09/01 10:35:50;;;;;;;12.27;6.43;;;;;;;;;;5027670;28;20075;-60
2023/09/01 10:38:23;;;;;;;12.97;5.97;;;;;;;;;;5027949;28;20095;-61
2023/09/01 10:40:53;;;;;;;11.40;5.78;;;;;;;;;;5027480;28;20096;-60
2023/09/01 10:43:34;;;;;;;11.70;5.43;;;;;;;;;;5027789;28;20416;-60
2023/09/01 10:46:13;;;;;;;12.40;6.10;;;;;;;;;;5027270;28;20207;-60
2023/09/01 10:48:51;;;;;;;10.50;5.77;;;;;;;;;;5027750;28;20058;-60
2023/09/01 10:51:17;;;;;;;11.00;6.30;;;;;;;;;;5027809;28;20052;-60
2023/09/01 10:53:43;;;;;;;12.17;6.40;;;;;;;;;;5022451;28;20056;-60
2023/09/01 10:56:15;;;;;;;11.50;6.00;;;;;;;;;;5026205;28;20045;-60
2023/09/01 10:58:49;;;;;;;11.60;6.47;;;;;;;;;;5042937;28;20051;-59
2023/09/01 11:01:25;;;;;;;12.67;6.63;;;;;;;;;;5036734;28;20499;-60
2023/09/01 11:03:51;;;;;;;10.90;6.17;;;;;;;;;;5025941;28;20037;-60
2023/09/01 11:06:17;;;;;;;9.47;5.57;;;;;;;;;;5027745;28;20041;-60
2023/09/01 11:08:59;;;;;;;12.67;5.87;;;;;;;;;;5027143;28;20457;-60
2023/09/01 11:11:25;;;;;;;11.77;5.60;;;;;;;;;;5027290;28;20540;-60
2023/09/01 11:14:00;;;;;;;10.47;5.70;;;;;;;;;;5026874;28;20057;-60
2023/09/01 11:16:26;;;;;;;10.80;6.30;;;;;;;;;;5027177;28;20049;-60
2023/09/01 11:19:04;;;;;;;10.20;5.60;;;;;;;;;;5026151;28;20053;-60
2023/09/01 11:21:30;;;;;;;9.10;5.33;;;;;;;;;;5024792;28;20052;-60
2023/09/01 11:24:00;;;;;;;9.70;5.30;;;;;;;;;;5041013;28;20056;-60
2023/09/01 11:26:26;;;;;;;12.37;5.37;;;;;;;;;;5037158;28;20045;-62
2023/09/01 11:28:54;;;;;;;10.23;5.23;;;;;;;;;;5028052;28;20515;-60
2023/09/01 11:31:20;;;;;;;10.37;5.53;;;;;;;;;;5026573;28;20060;-60
2023/09/01 11:33:53;;;;;;;9.10;5.10;;;;;;;;;;5027263;28;20053;-60
2023/09/01 11:36:19;;;;;;;;;;;;;;;;;;5028100;28;20045;-61
2023/09/01 11:38:45;;;;;;;10.17;5.43;;;;;;;;;;5027195;28;19943;-61
2023/09/01 11:41:13;;;;;;;9.70;5.00;;;;;;;;;;5036033;28;20056;-60
2023/09/01 11:43:40;;;;;;;10.90;5.77;;;;;;;;;;5041302;28;20054;-59
2023/09/01 11:46:06;;;;;;;9.70;5.40;;;;;;;;;;5031119;28;20141;-60
2023/09/01 11:48:32;;;;;;;11.00;6.00;;;;;;;;;;5026873;28;20056;-60
2023/09/01 11:50:59;;;;;;;10.03;4.73;;;;;;;;;;5027822;28;20045;-60
2023/09/01 11:53:26;;;;;;;11.67;4.97;;;;;;;;;;5030084;28;20056;-60
2023/09/01 11:55:52;;;;;;;13.00;5.20;;;;;;;;;;5029252;28;20050;-60
2023/09/01 11:58:18;;;;;;;9.20;4.97;;;;;;;;;;5028024;28;20456;-60
2023/09/01 12:00:44;;;;;;;9.87;4.37;;;;;;;;;;5029310;28;20041;-60
2023/09/01 12:03:11;;;;;;;11.37;5.00;;;;;;;;;;5030706;28;20042;-60
2023/09/01 12:05:37;;;;;;;9.87;5.13;;;;;;;;;;5030797;28;20423;-60
2023/09/01 12:08:04;;;;;;;9.47;4.40;;;;;;;;;;5029645;28;20488;-60
2023/09/01 12:10:30;;;;;;;13.33;6.83;;;;;;;;;;5030466;28;20419;-60
2023/09/01 12:13:02;;;;;;;11.30;5.27;;;;;;;;;;5030055;28;20045;-61
2023/09/01 12:15:29;;;;;;;8.43;5.30;;;;;;;;;;5030098;28;20080;-61
2023/09/01 12:17:55;;;;;;;9.27;5.33;;;;;;;;;;5030431;28;20308;-60
2023/09/01 12:20:21;;;;;;;10.77;4.70;;;;;;;;;;5030551;28;20099;-61
2023/09/01 12:22:48;;;;;;;9.93;4.90;;;;;;;;;;5030007;28;20077;-61
2023/09/01 12:25:14;;;;;;;6.93;4.33;;;;;;;;;;5030164;28;20411;-60
2023/09/01 12:27:40;;;;;;;10.47;4.53;;;;;;;;;;5030527;28;20049;-60
2023/09/01 12:30:06;;;;;;;8.60;4.10;;;;;;;;;;5030061;28;20048;-61
2023/09/01 12:32:32;;;;;;;9.23;4.88;;;;;;;;;;5029846;28;20107;-60
2023/09/01 12:34:58;;;;;;;10.45;4.30;;;;;;;;;;5029406;28;20111;-61
2023/09/01 12:37:25;;;;;;;8.53;3.97;;;;;;;;;;5030172;28;20045;-61
2023/09/01 12:39:51;;;;;;;9.05;4.25;;;;;;;;;;5029732;28;20049;-61
2023/09/01 12:42:17;;;;;;;9.65;4.20;;;;;;;;;;5029492;28;20052;-62
2023/09/01 12:44:43;;;;;;;7.13;3.20;;;;;;;;;;5030000;28;20064;-61
2023/09/01 12:47:09;;;;;;;8.18;3.60;;;;;;;;;;5029938;28;20053;-61
2023/09/01 12:49:36;;;;;;;9.48;4.45;;;;;;;;;;5030205;28;20056;-61
2023/09/01 12:52:02;;;;;;;8.82;4.32;;;;;;;;;;5030482;28;20057;-60
2023/09/01 12:54:28;;;;;;;8.75;3.42;;;;;;;;;;5029697;28;20064;-60
2023/09/01 12:56:54;;;;;;;7.43;3.78;;;;;;;;;;5029668;28;20042;-60
2023/09/01 12:59:20;;;;;;;11.13;3.92;;;;;;;;;;5029437;28;20451;-60
2023/09/01 13:01:46;;;;;;;10.90;4.28;;;;;;;;;;5029655;28;20510;-60
2023/09/01 13:04:12;;;;;;;9.18;4.07;;;;;;;;;;5029337;28;20053;-60
2023/09/01 13:06:39;;;;;;;7.05;3.83;;;;;;;;;;5027799;28;20411;-60
2023/09/01 13:09:05;;;;;;;8.07;4.47;;;;;;;;;;5027007;28;20041;-60
2023/09/01 13:11:31;;;;;;;7.95;4.00;;;;;;;;;;5027497;28;20099;-61
2023/09/01 13:13:57;;;;;;;6.85;3.70;;;;;;;;;;5027507;28;20423;-60
2023/09/01 13:16:30;;;;;;;9.82;4.45;;;;;;;;;;5027525;28;20052;-60
2023/09/01 13:18:56;;;;;;;7.90;4.15;;;;;;;;;;5027050;28;20056;-60
2023/09/01 13:21:23;;;;;;;10.05;4.65;;;;;;;;;;5028308;28;20079;-60
2023/09/01 13:23:49;;;;;;;7.38;3.47;;;;;;;;;;5028860;28;20056;-60
2023/09/01 13:26:15;;;;;;;7.60;4.53;;;;;;;;;;5029256;28;20365;-60
2023/09/01 13:28:41;;;;;;;8.48;3.13;;;;;;;;;;5029323;28;20049;-60
2023/09/01 13:31:07;;;;;;;8.73;3.92;;;;;;;;;;5028781;28;21042;-61
2023/09/01 13:33:38;;;;;;;9.05;3.80;;;;;;;;;;5028466;28;20053;-60
2023/09/01 13:36:04;;;;;;;9.85;4.25;;;;;;;;;;5029091;28;20456;-60
2023/09/01 13:38:30;;;;;;;8.73;5.07;;;;;;;;;;5027899;28;20045;-60
2023/09/01 13:40:57;;;;;;;9.32;4.55;;;;;;;;;;5028966;28;20049;-60
2023/09/01 13:43:23;;;;;;;10.18;4.90;;;;;;;;;;5028385;28;20049;-60
2023/09/01 13:45:49;;;;;;;10.15;5.38;;;;;;;;;;5028996;28;20049;-60
2023/09/01 13:48:15;;;;;;;7.25;4.22;;;;;;;;;;5028881;28;20057;-60
2023/09/01 13:50:41;;;;;;;8.90;4.43;;;;;;;;;;5029036;28;20041;-60
2023/09/01 13:53:07;;;;;;;8.02;4.25;;;;;;;;;;5028644;28;20496;-60
2023/09/01 13:55:33;;;;;;;8.30;5.75;;;;;;;;;;5028115;28;20523;-60
2023/09/01 13:57:59;;;;;;;9.10;5.10;;;;;;;;;;5028169;28;20049;-60
2023/09/01 14:00:25;;;;;;;8.20;4.57;;;;;;;;;;5028631;28;20041;-60
2023/09/01 14:02:51;;;;;;;7.03;4.43;;;;;;;;;;5028274;28;20037;-60
2023/09/01 14:05:17;;;;;;;9.77;4.78;;;;;;;;;;5028462;28;20084;-60
2023/09/01 14:07:43;;;;;;;7.90;3.70;;;;;;;;;;5028215;28;20083;-60
2023/09/01 14:10:09;;;;;;;7.35;3.80;;;;;;;;;;5027883;28;20073;-60
2023/09/01 14:12:35;;;;;;;6.20;3.83;;;;;;;;;;5028275;28;20045;-61
2023/09/01 14:15:01;;;;;;;10.07;5.30;;;;;;;;;;5027475;28;20049;-60
2023/09/01 14:17:27;;;;;;;7.15;4.43;;;;;;;;;;5028221;28;20052;-60
2023/09/01 14:19:53;;;;;;;13.02;6.38;;;;;;;;;;5027703;28;20045;-60
2023/09/01 14:22:19;;;;;;;9.93;5.40;;;;;;;;;;5028197;28;20041;-60
2023/09/01 14:24:45;;;;;;;9.10;5.47;;;;;;;;;;5027534;28;20094;-60
2023/09/01 14:27:11;;;;;;;10.15;5.72;;;;;;;;;;5027745;28;20046;-61